Christian Reinauer — WDA6472 — position and weather

sailwx.info

Track history (hours):
 
Tides and Currents Weather Stations Pressure Air Temp Water Temp Dewpoint Dewpoint Depression Visibility Wind Speed Wind Dir Waves Ship Positions

Christian Reinauer

Owner: REINAUER TRANSPORTATION CO LLC, STATEN ISLAND, NY. More information available from US FCC via Universal Licensing System and Coast Guard Vessel Documentation Center.

Last reported at 2017-Jun-28 04:55 UTC. Time now 2017-Jun-29 07:24 UTC.
Position N 41°13' W 072°54'.

Length 170 m; draft 8.4 m.

Type: . MMSI: 366832740.

Date/timePositionNaut miles runAvg speedWind from/ knotsBaromVisibWave heightAir tempDewpointWater temp
2017-Jun-28 04:55N 41°13' W 072°54'4 9.5
2017-Jun-28 04:29N 41°10' W 072°58'4410.8
2017-Jun-28 00:23N 40°48' W 073°49'4 9.9
2017-Jun-28 00:00N 40°48' W 073°54'3 5.3
2017-Jun-27 23:29N 40°46' W 073°57'3 6.1
2017-Jun-27 23:00N 40°43' W 073°58'3 5.7
2017-Jun-27 22:30N 40°41' W 074°01'3 6.4
2017-Jun-27 22:00N 40°39' W 074°03'3 5.7
2017-Jun-27 21:30N 40°39' W 074°07'4 7.7
2017-Jun-27 21:00N 40°38' W 074°12'4 7.2
2017-Jun-27 20:30N 40°34' W 074°13'2 1.4
2017-Jun-27 18:45N 40°32' W 074°15'0 0.0
2017-Jun-27 18:09N 40°32' W 074°15'0 0.0
2017-Jun-27 17:45N 40°32' W 074°15'0 0.0
2017-Jun-27 14:51N 40°32' W 074°15'0 0.0
2017-Jun-27 13:57N 40°32' W 074°15'0 0.0
2017-Jun-27 13:26N 40°32' W 074°15'0 0.0
2017-Jun-27 12:56N 40°32' W 074°15'0 0.0
2017-Jun-27 12:26N 40°32' W 074°15'0 0.0
2017-Jun-27 11:44N 40°32' W 074°15'0 0.0
2017-Jun-27 11:26N 40°32' W 074°15'0 0.0
2017-Jun-27 10:56N 40°32' W 074°15'0 0.0
2017-Jun-27 10:26N 40°32' W 074°15'0 0.0
2017-Jun-27 09:56N 40°32' W 074°15'0 0.0
2017-Jun-27 09:26N 40°32' W 074°15'0 0.0
2017-Jun-27 08:44N 40°32' W 074°15'0 0.0
2017-Jun-27 08:26N 40°32' W 074°15'0 0.0
2017-Jun-27 07:56N 40°32' W 074°15'0 0.0
2017-Jun-27 07:20N 40°32' W 074°15'0 0.0
2017-Jun-27 04:50N 40°32' W 074°15'0 0.0
2017-Jun-27 04:29N 40°32' W 074°15'0 0.0
2017-Jun-27 03:56N 40°32' W 074°15'0 0.0
2017-Jun-27 02:32N 40°32' W 074°15'0 0.0
2017-Jun-27 02:20N 40°32' W 074°15'0 0.0
2017-Jun-27 01:56N 40°32' W 074°15'0 0.0
2017-Jun-27 01:14N 40°32' W 074°15'0 0.0
2017-Jun-27 00:50N 40°32' W 074°15'0 0.0
2017-Jun-27 00:26N 40°32' W 074°15'0 0.0
2017-Jun-26 23:56N 40°32' W 074°15'0 0.0
2017-Jun-26 23:20N 40°32' W 074°15'0 0.0
2017-Jun-26 22:56N 40°32' W 074°15'0 0.0
2017-Jun-26 22:26N 40°32' W 074°15'0 0.0
2017-Jun-26 21:56N 40°32' W 074°15'0 0.0
2017-Jun-26 21:26N 40°32' W 074°15'0 0.0
2017-Jun-26 20:08N 40°32' W 074°15'0 0.0
2017-Jun-26 19:44N 40°32' W 074°15'0 0.0
2017-Jun-26 19:14N 40°32' W 074°15'0 0.0
2017-Jun-26 18:56N 40°32' W 074°15'0 0.0
2017-Jun-26 18:20N 40°32' W 074°15'0 0.0
2017-Jun-26 17:02N 40°32' W 074°15'0 0.0
2017-Jun-26 16:56N 40°32' W 074°15'0 0.0
2017-Jun-26 16:14N 40°32' W 074°15'0 0.0
2017-Jun-26 15:14N 40°32' W 074°15'1 0.3
2017-Jun-26 12:23N 40°33' W 074°15'3 6.3
2017-Jun-26 11:56N 40°35' W 074°12'3 6.1
2017-Jun-26 11:30N 40°38' W 074°12'4 8.6
2017-Jun-26 11:00N 40°39' W 074°06'5 9.4
2017-Jun-26 10:30N 40°41' W 074°01'5 9.5
2017-Jun-26 10:00N 40°45' W 073°58'510.2
2017-Jun-26 09:30N 40°48' W 073°52'4 1.1
2017-Jun-26 06:01N 40°49' W 073°47'0 2.1
2017-Jun-26 05:59N 40°49' W 073°47'5 9.7
2017-Jun-26 05:29N 40°53' W 073°44'6 0.1
2017-Jun-24 08:38N 40°48' W 073°49'211.4
2017-Jun-24 08:29N 40°48' W 073°51'4 8.0
2017-Jun-24 07:59N 40°47' W 073°56'3 6.2
2017-Jun-24 07:31N 40°44' W 073°58'2 4.9
2017-Jun-24 07:00N 40°42' W 074°00'3 5.0
2017-Jun-24 06:30N 40°40' W 074°02'1 2.0
2017-Jun-24 06:00N 40°39' W 074°03'1 1.5
2017-Jun-24 05:30N 40°39' W 074°03'1 2.7
2017-Jun-24 04:58N 40°37' W 074°03'0 0.8
2017-Jun-24 04:30N 40°37' W 074°04'1 2.9
2017-Jun-24 04:00N 40°39' W 074°04'3 5.3
2017-Jun-24 03:30N 40°39' W 074°07'4 7.1
2017-Jun-24 03:00N 40°38' W 074°12'4 6.9
2017-Jun-24 02:29N 40°34' W 074°13'3 5.6
2017-Jun-24 02:00N 40°33' W 074°15'0 0.1
2017-Jun-24 01:30N 40°32' W 074°15'0 0.0
2017-Jun-24 01:00N 40°32' W 074°15'0 0.0
2017-Jun-24 00:30N 40°32' W 074°15'0 0.0
2017-Jun-23 23:36N 40°32' W 074°15'0 0.0
2017-Jun-23 23:24N 40°32' W 074°15'0 0.0
2017-Jun-23 23:00N 40°32' W 074°15'0 0.0
2017-Jun-23 22:30N 40°32' W 074°15'0 0.0
2017-Jun-23 21:06N 40°32' W 074°15'0 0.0
2017-Jun-23 21:00N 40°32' W 074°15'0 0.0
2017-Jun-23 20:12N 40°32' W 074°15'0 0.0
2017-Jun-23 19:54N 40°32' W 074°15'0 0.0
2017-Jun-23 19:24N 40°32' W 074°15'0 0.0
2017-Jun-23 18:54N 40°32' W 074°15'0 0.0
2017-Jun-23 18:24N 40°32' W 074°15'0 0.0
2017-Jun-23 17:12N 40°32' W 074°15'0 0.0
2017-Jun-23 15:42N 40°32' W 074°15'0 0.0
2017-Jun-23 12:54N 40°32' W 074°15'0 0.0
2017-Jun-23 12:30N 40°32' W 074°15'0 0.0
2017-Jun-23 12:00N 40°32' W 074°15'0 0.0
2017-Jun-23 11:30N 40°32' W 074°15'0 0.0
2017-Jun-23 11:00N 40°32' W 074°15'0 0.0
2017-Jun-23 10:18N 40°32' W 074°15'0 0.0
2017-Jun-23 10:00N 40°32' W 074°15'0 0.0
2017-Jun-23 09:24N 40°32' W 074°15'0 0.0
2017-Jun-23 09:00N 40°32' W 074°15'0 0.0
2017-Jun-23 08:30N 40°32' W 074°15'0 0.0
2017-Jun-23 08:00N 40°32' W 074°15'0 0.0
2017-Jun-23 07:30N 40°32' W 074°15'0 0.0
2017-Jun-23 07:00N 40°32' W 074°15'0 0.0
2017-Jun-23 06:24N 40°32' W 074°15'0 0.0
2017-Jun-23 06:00N 40°32' W 074°15'0 0.0
2017-Jun-23 05:30N 40°32' W 074°15'0 0.0
2017-Jun-23 05:00N 40°32' W 074°15'0 0.0
2017-Jun-23 04:30N 40°32' W 074°15'0 0.0
2017-Jun-23 04:00N 40°32' W 074°15'0 0.0
2017-Jun-23 03:30N 40°32' W 074°15'0 0.0
2017-Jun-23 03:00N 40°32' W 074°15'0 0.0
2017-Jun-23 02:30N 40°32' W 074°15'0 0.0
2017-Jun-23 02:00N 40°32' W 074°15'0 0.0
2017-Jun-23 01:24N 40°32' W 074°15'0 0.0
2017-Jun-23 01:00N 40°32' W 074°15'0 0.0
2017-Jun-23 00:24N 40°32' W 074°15'0 0.0
2017-Jun-22 20:30N 40°32' W 074°15'0 0.0
2017-Jun-22 19:18N 40°32' W 074°15'0 0.0
2017-Jun-22 19:00N 40°32' W 074°15'0 0.0
2017-Jun-22 17:35N 40°32' W 074°15'0 0.1
2017-Jun-22 17:27N 40°32' W 074°15'2 3.8
2017-Jun-22 16:51N 40°34' W 074°13'3 7.0
2017-Jun-22 16:30N 40°36' W 074°12'3 5.9
2017-Jun-22 16:00N 40°39' W 074°10'4 7.3
2017-Jun-22 15:31N 40°39' W 074°06'2 4.3
2017-Jun-22 15:01N 40°39' W 074°03'4 3.8
2017-Jun-22 14:01N 40°38' W 074°08'0 0.0
2017-Jun-22 13:30N 40°38' W 074°08'0 0.0
2017-Jun-22 13:00N 40°38' W 074°08'0 0.0
2017-Jun-22 12:30N 40°38' W 074°08'1 1.5
2017-Jun-22 12:01N 40°39' W 074°07'3 6.5
2017-Jun-22 11:30N 40°40' W 074°03'0 0.0
2017-Jun-22 11:00N 40°40' W 074°03'0 0.1
2017-Jun-22 10:30N 40°40' W 074°03'0 0.0
2017-Jun-22 10:01N 40°40' W 074°03'0 0.0
2017-Jun-22 09:30N 40°40' W 074°03'0 0.2
2017-Jun-22 09:00N 40°39' W 074°03'0 0.1
2017-Jun-22 08:30N 40°39' W 074°03'0 0.1
2017-Jun-22 08:00N 40°39' W 074°03'0 0.0
2017-Jun-22 07:31N 40°39' W 074°03'0 0.0
2017-Jun-22 07:00N 40°39' W 074°03'0 0.0
2017-Jun-22 06:30N 40°39' W 074°03'0 0.0
2017-Jun-22 06:01N 40°39' W 074°03'0 0.0
2017-Jun-22 05:30N 40°39' W 074°03'0 0.0
2017-Jun-22 05:00N 40°39' W 074°03'0 0.0
2017-Jun-22 04:31N 40°39' W 074°03'0 0.0
2017-Jun-22 04:00N 40°39' W 074°03'0 0.0
2017-Jun-22 03:30N 40°39' W 074°03'0 0.0
2017-Jun-22 03:00N 40°39' W 074°03'0 0.0
2017-Jun-22 02:31N 40°39' W 074°03'0 0.2
2017-Jun-22 02:00N 40°39' W 074°03'1 1.2
2017-Jun-22 01:30N 40°40' W 074°02'5 9.8
2017-Jun-22 01:01N 40°44' W 073°58'5 9.5
2017-Jun-22 00:30N 40°48' W 073°55'2 4.6
2017-Jun-22 00:01N 40°48' W 073°52'4 8.9
2017-Jun-21 23:30N 40°50' W 073°46'1 0.0
2017-Jun-20 11:03N 40°51' W 073°46'111.5
2017-Jun-20 10:59N 40°50' W 073°46'5 9.4
2017-Jun-20 10:29N 40°48' W 073°52'4 7.2
2017-Jun-20 09:59N 40°47' W 073°56'3 6.7
2017-Jun-20 09:30N 40°44' W 073°58'3 6.1
2017-Jun-20 09:00N 40°41' W 074°01'3 5.5
2017-Jun-20 08:30N 40°39' W 074°03'2 4.9
2017-Jun-20 08:00N 40°39' W 074°06'3 6.8
2017-Jun-20 07:30N 40°39' W 074°11'3 5.9
2017-Jun-20 06:58N 40°36' W 074°12'3 4.9
2017-Jun-20 06:24N 40°33' W 074°14'1 0.1
2017-Jun-19 21:34N 40°33' W 074°15'0 0.0
2017-Jun-19 21:28N 40°33' W 074°15'0 0.0
2017-Jun-19 18:47N 40°33' W 074°15'0 0.0
2017-Jun-19 16:59N 40°33' W 074°15'0 0.0
2017-Jun-19 16:29N 40°33' W 074°15'0 0.0
2017-Jun-19 15:57N 40°33' W 074°15'0 0.0
2017-Jun-19 15:30N 40°33' W 074°15'0 0.0
2017-Jun-19 15:00N 40°33' W 074°15'0 0.0
2017-Jun-19 14:30N 40°33' W 074°15'0 0.0
2017-Jun-19 13:15N 40°33' W 074°15'0 0.0
2017-Jun-19 13:00N 40°33' W 074°15'0 0.0
2017-Jun-19 12:30N 40°33' W 074°15'0 0.0
2017-Jun-19 11:18N 40°33' W 074°15'0 0.0
2017-Jun-19 10:58N 40°33' W 074°15'0 0.0
2017-Jun-19 10:29N 40°33' W 074°15'0 0.0
2017-Jun-19 09:53N 40°33' W 074°15'0 0.0
2017-Jun-19 09:29N 40°33' W 074°15'0 0.0
2017-Jun-19 08:38N 40°33' W 074°15'0 0.0
2017-Jun-19 07:14N 40°33' W 074°15'0 0.0
2017-Jun-19 06:53N 40°33' W 074°15'0 0.0
2017-Jun-19 06:26N 40°33' W 074°15'0 0.0
2017-Jun-19 06:00N 40°33' W 074°15'0 0.0
2017-Jun-19 05:25N 40°33' W 074°15'0 0.0
2017-Jun-19 04:54N 40°33' W 074°15'0 0.0
2017-Jun-19 04:30N 40°33' W 074°15'0 0.0
2017-Jun-19 03:58N 40°33' W 074°15'0 0.0
2017-Jun-19 03:30N 40°33' W 074°15'0 0.0
2017-Jun-19 02:59N 40°33' W 074°15'0 0.0
2017-Jun-18 21:55N 40°33' W 074°15'0 0.0
2017-Jun-18 21:30N 40°33' W 074°15'0 0.0
2017-Jun-18 20:59N 40°33' W 074°15'0 0.0
2017-Jun-18 20:30N 40°33' W 074°15'0 0.0
2017-Jun-18 19:59N 40°33' W 074°15'0 0.0
2017-Jun-18 19:30N 40°33' W 074°15'0 0.0
2017-Jun-18 18:59N 40°33' W 074°15'0 0.0
2017-Jun-18 18:08N 40°33' W 074°15'0 0.0
2017-Jun-18 18:00N 40°33' W 074°15'0 0.6
2017-Jun-18 17:20N 40°33' W 074°15'3 6.1
2017-Jun-18 16:48N 40°36' W 074°12'2 7.4
2017-Jun-18 16:30N 40°38' W 074°12'3 6.6
2017-Jun-18 16:00N 40°39' W 074°08'4 7.2
2017-Jun-18 15:30N 40°39' W 074°03'5 9.0
2017-Jun-18 15:00N 40°42' W 073°59'9 8.6
2017-Jun-18 14:00N 40°48' W 073°51'4 8.8
2017-Jun-18 13:30N 40°51' W 073°46'  
Track history (hours):
 
Tides and Currents Weather Stations Pressure Air Temp Water Temp Dewpoint Dewpoint Depression Visibility Wind Speed Wind Dir Waves Ship Positions

Christian Reinauer

Owner: REINAUER TRANSPORTATION CO LLC, STATEN ISLAND, NY. More information available from US FCC via Universal Licensing System and Coast Guard Vessel Documentation Center.

Last reported at 2017-Jun-28 04:55 UTC. Time now 2017-Jun-29 07:24 UTC.
Position N 41°13' W 072°54'.

Length 170 m; draft 8.4 m.

Type: . MMSI: 366832740.

Date/timePositionNaut miles runAvg speedWind from/ knotsBaromVisibWave heightAir tempDewpointWater temp
2017-Jun-28 04:55N 41°13' W 072°54'4 9.5
2017-Jun-28 04:29N 41°10' W 072°58'4410.8
2017-Jun-28 00:23N 40°48' W 073°49'4 9.9
2017-Jun-28 00:00N 40°48' W 073°54'3 5.3
2017-Jun-27 23:29N 40°46' W 073°57'3 6.1
2017-Jun-27 23:00N 40°43' W 073°58'3 5.7
2017-Jun-27 22:30N 40°41' W 074°01'3 6.4
2017-Jun-27 22:00N 40°39' W 074°03'3 5.7
2017-Jun-27 21:30N 40°39' W 074°07'4 7.7
2017-Jun-27 21:00N 40°38' W 074°12'4 7.2
2017-Jun-27 20:30N 40°34' W 074°13'2 1.4
2017-Jun-27 18:45N 40°32' W 074°15'0 0.0
2017-Jun-27 18:09N 40°32' W 074°15'0 0.0
2017-Jun-27 17:45N 40°32' W 074°15'0 0.0
2017-Jun-27 14:51N 40°32' W 074°15'0 0.0
2017-Jun-27 13:57N 40°32' W 074°15'0 0.0
2017-Jun-27 13:26N 40°32' W 074°15'0 0.0
2017-Jun-27 12:56N 40°32' W 074°15'0 0.0
2017-Jun-27 12:26N 40°32' W 074°15'0 0.0
2017-Jun-27 11:44N 40°32' W 074°15'0 0.0
2017-Jun-27 11:26N 40°32' W 074°15'0 0.0
2017-Jun-27 10:56N 40°32' W 074°15'0 0.0
2017-Jun-27 10:26N 40°32' W 074°15'0 0.0
2017-Jun-27 09:56N 40°32' W 074°15'0 0.0
2017-Jun-27 09:26N 40°32' W 074°15'0 0.0
2017-Jun-27 08:44N 40°32' W 074°15'0 0.0
2017-Jun-27 08:26N 40°32' W 074°15'0 0.0
2017-Jun-27 07:56N 40°32' W 074°15'0 0.0
2017-Jun-27 07:20N 40°32' W 074°15'0 0.0
2017-Jun-27 04:50N 40°32' W 074°15'0 0.0
2017-Jun-27 04:29N 40°32' W 074°15'0 0.0
2017-Jun-27 03:56N 40°32' W 074°15'0 0.0
2017-Jun-27 02:32N 40°32' W 074°15'0 0.0
2017-Jun-27 02:20N 40°32' W 074°15'0 0.0
2017-Jun-27 01:56N 40°32' W 074°15'0 0.0
2017-Jun-27 01:14N 40°32' W 074°15'0 0.0
2017-Jun-27 00:50N 40°32' W 074°15'0 0.0
2017-Jun-27 00:26N 40°32' W 074°15'0 0.0
2017-Jun-26 23:56N 40°32' W 074°15'0 0.0
2017-Jun-26 23:20N 40°32' W 074°15'0 0.0
2017-Jun-26 22:56N 40°32' W 074°15'0 0.0
2017-Jun-26 22:26N 40°32' W 074°15'0 0.0
2017-Jun-26 21:56N 40°32' W 074°15'0 0.0
2017-Jun-26 21:26N 40°32' W 074°15'0 0.0
2017-Jun-26 20:08N 40°32' W 074°15'0 0.0
2017-Jun-26 19:44N 40°32' W 074°15'0 0.0
2017-Jun-26 19:14N 40°32' W 074°15'0 0.0
2017-Jun-26 18:56N 40°32' W 074°15'0 0.0
2017-Jun-26 18:20N 40°32' W 074°15'0 0.0
2017-Jun-26 17:02N 40°32' W 074°15'0 0.0
2017-Jun-26 16:56N 40°32' W 074°15'0 0.0
2017-Jun-26 16:14N 40°32' W 074°15'0 0.0
2017-Jun-26 15:14N 40°32' W 074°15'1 0.3
2017-Jun-26 12:23N 40°33' W 074°15'3 6.3
2017-Jun-26 11:56N 40°35' W 074°12'3 6.1
2017-Jun-26 11:30N 40°38' W 074°12'4 8.6
2017-Jun-26 11:00N 40°39' W 074°06'5 9.4
2017-Jun-26 10:30N 40°41' W 074°01'5 9.5
2017-Jun-26 10:00N 40°45' W 073°58'510.2
2017-Jun-26 09:30N 40°48' W 073°52'4 1.1
2017-Jun-26 06:01N 40°49' W 073°47'0 2.1
2017-Jun-26 05:59N 40°49' W 073°47'5 9.7
2017-Jun-26 05:29N 40°53' W 073°44'6 0.1
2017-Jun-24 08:38N 40°48' W 073°49'211.4
2017-Jun-24 08:29N 40°48' W 073°51'4 8.0
2017-Jun-24 07:59N 40°47' W 073°56'3 6.2
2017-Jun-24 07:31N 40°44' W 073°58'2 4.9
2017-Jun-24 07:00N 40°42' W 074°00'3 5.0
2017-Jun-24 06:30N 40°40' W 074°02'1 2.0
2017-Jun-24 06:00N 40°39' W 074°03'1 1.5
2017-Jun-24 05:30N 40°39' W 074°03'1 2.7
2017-Jun-24 04:58N 40°37' W 074°03'0 0.8
2017-Jun-24 04:30N 40°37' W 074°04'1 2.9
2017-Jun-24 04:00N 40°39' W 074°04'3 5.3
2017-Jun-24 03:30N 40°39' W 074°07'4 7.1
2017-Jun-24 03:00N 40°38' W 074°12'4 6.9
2017-Jun-24 02:29N 40°34' W 074°13'3 5.6
2017-Jun-24 02:00N 40°33' W 074°15'0 0.1
2017-Jun-24 01:30N 40°32' W 074°15'0 0.0
2017-Jun-24 01:00N 40°32' W 074°15'0 0.0
2017-Jun-24 00:30N 40°32' W 074°15'0 0.0
2017-Jun-23 23:36N 40°32' W 074°15'0 0.0
2017-Jun-23 23:24N 40°32' W 074°15'0 0.0
2017-Jun-23 23:00N 40°32' W 074°15'0 0.0
2017-Jun-23 22:30N 40°32' W 074°15'0 0.0
2017-Jun-23 21:06N 40°32' W 074°15'0 0.0
2017-Jun-23 21:00N 40°32' W 074°15'0 0.0
2017-Jun-23 20:12N 40°32' W 074°15'0 0.0
2017-Jun-23 19:54N 40°32' W 074°15'0 0.0
2017-Jun-23 19:24N 40°32' W 074°15'0 0.0
2017-Jun-23 18:54N 40°32' W 074°15'0 0.0
2017-Jun-23 18:24N 40°32' W 074°15'0 0.0
2017-Jun-23 17:12N 40°32' W 074°15'0 0.0
2017-Jun-23 15:42N 40°32' W 074°15'0 0.0
2017-Jun-23 12:54N 40°32' W 074°15'0 0.0
2017-Jun-23 12:30N 40°32' W 074°15'0 0.0
2017-Jun-23 12:00N 40°32' W 074°15'0 0.0
2017-Jun-23 11:30N 40°32' W 074°15'0 0.0
2017-Jun-23 11:00N 40°32' W 074°15'0 0.0
2017-Jun-23 10:18N 40°32' W 074°15'0 0.0
2017-Jun-23 10:00N 40°32' W 074°15'0 0.0
2017-Jun-23 09:24N 40°32' W 074°15'0 0.0
2017-Jun-23 09:00N 40°32' W 074°15'0 0.0
2017-Jun-23 08:30N 40°32' W 074°15'0 0.0
2017-Jun-23 08:00N 40°32' W 074°15'0 0.0
2017-Jun-23 07:30N 40°32' W 074°15'0 0.0
2017-Jun-23 07:00N 40°32' W 074°15'0 0.0
2017-Jun-23 06:24N 40°32' W 074°15'0 0.0
2017-Jun-23 06:00N 40°32' W 074°15'0 0.0
2017-Jun-23 05:30N 40°32' W 074°15'0 0.0
2017-Jun-23 05:00N 40°32' W 074°15'0 0.0
2017-Jun-23 04:30N 40°32' W 074°15'0 0.0
2017-Jun-23 04:00N 40°32' W 074°15'0 0.0
2017-Jun-23 03:30N 40°32' W 074°15'0 0.0
2017-Jun-23 03:00N 40°32' W 074°15'0 0.0
2017-Jun-23 02:30N 40°32' W 074°15'0 0.0
2017-Jun-23 02:00N 40°32' W 074°15'0 0.0
2017-Jun-23 01:24N 40°32' W 074°15'0 0.0
2017-Jun-23 01:00N 40°32' W 074°15'0 0.0
2017-Jun-23 00:24N 40°32' W 074°15'0 0.0
2017-Jun-22 20:30N 40°32' W 074°15'0 0.0
2017-Jun-22 19:18N 40°32' W 074°15'0 0.0
2017-Jun-22 19:00N 40°32' W 074°15'0 0.0
2017-Jun-22 17:35N 40°32' W 074°15'0 0.1
2017-Jun-22 17:27N 40°32' W 074°15'2 3.8
2017-Jun-22 16:51N 40°34' W 074°13'3 7.0
2017-Jun-22 16:30N 40°36' W 074°12'3 5.9
2017-Jun-22 16:00N 40°39' W 074°10'4 7.3
2017-Jun-22 15:31N 40°39' W 074°06'2 4.3
2017-Jun-22 15:01N 40°39' W 074°03'4 3.8
2017-Jun-22 14:01N 40°38' W 074°08'0 0.0
2017-Jun-22 13:30N 40°38' W 074°08'0 0.0
2017-Jun-22 13:00N 40°38' W 074°08'0 0.0
2017-Jun-22 12:30N 40°38' W 074°08'1 1.5
2017-Jun-22 12:01N 40°39' W 074°07'3 6.5
2017-Jun-22 11:30N 40°40' W 074°03'0 0.0
2017-Jun-22 11:00N 40°40' W 074°03'0 0.1
2017-Jun-22 10:30N 40°40' W 074°03'0 0.0
2017-Jun-22 10:01N 40°40' W 074°03'0 0.0
2017-Jun-22 09:30N 40°40' W 074°03'0 0.2
2017-Jun-22 09:00N 40°39' W 074°03'0 0.1
2017-Jun-22 08:30N 40°39' W 074°03'0 0.1
2017-Jun-22 08:00N 40°39' W 074°03'0 0.0
2017-Jun-22 07:31N 40°39' W 074°03'0 0.0
2017-Jun-22 07:00N 40°39' W 074°03'0 0.0
2017-Jun-22 06:30N 40°39' W 074°03'0 0.0
2017-Jun-22 06:01N 40°39' W 074°03'0 0.0
2017-Jun-22 05:30N 40°39' W 074°03'0 0.0
2017-Jun-22 05:00N 40°39' W 074°03'0 0.0
2017-Jun-22 04:31N 40°39' W 074°03'0 0.0
2017-Jun-22 04:00N 40°39' W 074°03'0 0.0
2017-Jun-22 03:30N 40°39' W 074°03'0 0.0
2017-Jun-22 03:00N 40°39' W 074°03'0 0.0
2017-Jun-22 02:31N 40°39' W 074°03'0 0.2
2017-Jun-22 02:00N 40°39' W 074°03'1 1.2
2017-Jun-22 01:30N 40°40' W 074°02'5 9.8
2017-Jun-22 01:01N 40°44' W 073°58'5 9.5
2017-Jun-22 00:30N 40°48' W 073°55'2 4.6
2017-Jun-22 00:01N 40°48' W 073°52'4 8.9
2017-Jun-21 23:30N 40°50' W 073°46'1 0.0
2017-Jun-20 11:03N 40°51' W 073°46'111.5
2017-Jun-20 10:59N 40°50' W 073°46'5 9.4
2017-Jun-20 10:29N 40°48' W 073°52'4 7.2
2017-Jun-20 09:59N 40°47' W 073°56'3 6.7
2017-Jun-20 09:30N 40°44' W 073°58'3 6.1
2017-Jun-20 09:00N 40°41' W 074°01'3 5.5
2017-Jun-20 08:30N 40°39' W 074°03'2 4.9
2017-Jun-20 08:00N 40°39' W 074°06'3 6.8
2017-Jun-20 07:30N 40°39' W 074°11'3 5.9
2017-Jun-20 06:58N 40°36' W 074°12'3 4.9
2017-Jun-20 06:24N 40°33' W 074°14'1 0.1
2017-Jun-19 21:34N 40°33' W 074°15'0 0.0
2017-Jun-19 21:28N 40°33' W 074°15'0 0.0
2017-Jun-19 18:47N 40°33' W 074°15'0 0.0
2017-Jun-19 16:59N 40°33' W 074°15'0 0.0
2017-Jun-19 16:29N 40°33' W 074°15'0 0.0
2017-Jun-19 15:57N 40°33' W 074°15'0 0.0
2017-Jun-19 15:30N 40°33' W 074°15'0 0.0
2017-Jun-19 15:00N 40°33' W 074°15'0 0.0
2017-Jun-19 14:30N 40°33' W 074°15'0 0.0
2017-Jun-19 13:15N 40°33' W 074°15'0 0.0
2017-Jun-19 13:00N 40°33' W 074°15'0 0.0
2017-Jun-19 12:30N 40°33' W 074°15'0 0.0
2017-Jun-19 11:18N 40°33' W 074°15'0 0.0
2017-Jun-19 10:58N 40°33' W 074°15'0 0.0
2017-Jun-19 10:29N 40°33' W 074°15'0 0.0
2017-Jun-19 09:53N 40°33' W 074°15'0 0.0
2017-Jun-19 09:29N 40°33' W 074°15'0 0.0
2017-Jun-19 08:38N 40°33' W 074°15'0 0.0
2017-Jun-19 07:14N 40°33' W 074°15'0 0.0
2017-Jun-19 06:53N 40°33' W 074°15'0 0.0
2017-Jun-19 06:26N 40°33' W 074°15'0 0.0
2017-Jun-19 06:00N 40°33' W 074°15'0 0.0
2017-Jun-19 05:25N 40°33' W 074°15'0 0.0
2017-Jun-19 04:54N 40°33' W 074°15'0 0.0
2017-Jun-19 04:30N 40°33' W 074°15'0 0.0
2017-Jun-19 03:58N 40°33' W 074°15'0 0.0
2017-Jun-19 03:30N 40°33' W 074°15'0 0.0
2017-Jun-19 02:59N 40°33' W 074°15'0 0.0
2017-Jun-18 21:55N 40°33' W 074°15'0 0.0
2017-Jun-18 21:30N 40°33' W 074°15'0 0.0
2017-Jun-18 20:59N 40°33' W 074°15'0 0.0
2017-Jun-18 20:30N 40°33' W 074°15'0 0.0
2017-Jun-18 19:59N 40°33' W 074°15'0 0.0
2017-Jun-18 19:30N 40°33' W 074°15'0 0.0
2017-Jun-18 18:59N 40°33' W 074°15'0 0.0
2017-Jun-18 18:08N 40°33' W 074°15'0 0.0
2017-Jun-18 18:00N 40°33' W 074°15'0 0.6
2017-Jun-18 17:20N 40°33' W 074°15'3 6.1
2017-Jun-18 16:48N 40°36' W 074°12'2 7.4
2017-Jun-18 16:30N 40°38' W 074°12'3 6.6
2017-Jun-18 16:00N 40°39' W 074°08'4 7.2
2017-Jun-18 15:30N 40°39' W 074°03'5 9.0
2017-Jun-18 15:00N 40°42' W 073°59'9 8.6
2017-Jun-18 14:00N 40°48' W 073°51'4 8.8
2017-Jun-18 13:30N 40°51' W 073°46'  

Dump ship's entire track history